アダック島 の空港の天気 - METARとTAF

アダック空港 ( PADK / ADK ) - アメリカ アラスカ州アダック島
飛行場実況気象(Metar)
観測時間11/30 07:56 AKST (11/30 16:56 UTC)
風向・風速不定 2m/s
視程-
天気現象
全天を覆う雲 雲底高度 400m
気温8.9℃
湿度93%
気圧1020.9hPa
METARPADK 301656Z AUTO VRB03KT OVC013 09/08 A3015 RMK AO2 SLP209 T00890078 PWINO $
過去の天気等 Google飛行場航空写真 Wunderground天気予報

過去48時間のMETAR

飛行場予報(TAF)
データがありません